logo
Search for airport 
image banner adimage banner adimage banner ad
image banner ad

CYCQ - Chetwynd

Located in , Canada

ICAO - CYCQ, IATA - YCQ

Data provided by Airmate  

General information

Coordinates: N55°41'14" W121°37'36"
Elevation is 1999 feet MSL.
Magnetic variation is 18.6175° East
View others Airports in British Columbia

Operational data

Special qualification required
Current time UTC:
Current local time:
Weather
METAR: CYCQ 241400Z 24007KT 180V270 35SM SCT040 BKN050 OVC160 09/05 A2970 RMK SC3SC3AS2 DEW VIRGA NE SUN DIMLY VISBL SLP072
View NOTAMs / SUP AIP / TFR affecting this airport [VIEW]
Communications frequencies: [VIEW]

Runways:

RWY identifierQFULength (ft)Width (ft)SurfaceLDA (ft)
0572°4481100ASPH4481
23252°4481100ASPH4481

Airport contact information

Address: Canada

Satellite view of CYCQ